sensor_id;sensor_type;location;lat;lon;timestamp;temperature;humidity
43647;DHT22;56152;49.996;18.980;2023-05-07T00:01:16;10.30;93.10
43647;DHT22;56152;49.996;18.980;2023-05-07T00:06:20;10.30;93.10
43647;DHT22;56152;49.996;18.980;2023-05-07T00:11:22;10.30;93.20
43647;DHT22;56152;49.996;18.980;2023-05-07T00:16:24;10.30;93.20
43647;DHT22;56152;49.996;18.980;2023-05-07T00:21:28;10.30;93.30
43647;DHT22;56152;49.996;18.980;2023-05-07T00:26:33;10.30;93.30
43647;DHT22;56152;49.996;18.980;2023-05-07T00:31:35;10.30;93.30
43647;DHT22;56152;49.996;18.980;2023-05-07T00:36:39;10.30;93.30
43647;DHT22;56152;49.996;18.980;2023-05-07T00:41:41;10.30;93.30
43647;DHT22;56152;49.996;18.980;2023-05-07T00:46:46;10.20;93.40
43647;DHT22;56152;49.996;18.980;2023-05-07T00:51:52;10.20;93.40
43647;DHT22;56152;49.996;18.980;2023-05-07T00:56:56;10.20;93.50
43647;DHT22;56152;49.996;18.980;2023-05-07T01:01:58;10.20;93.50
43647;DHT22;56152;49.996;18.980;2023-05-07T01:07:05;10.20;93.50
43647;DHT22;56152;49.996;18.980;2023-05-07T01:12:08;10.10;93.50
43647;DHT22;56152;49.996;18.980;2023-05-07T01:17:11;10.10;93.50
43647;DHT22;56152;49.996;18.980;2023-05-07T01:22:15;10.10;93.60
43647;DHT22;56152;49.996;18.980;2023-05-07T01:27:21;10.10;93.70
43647;DHT22;56152;49.996;18.980;2023-05-07T01:32:29;10.10;94.00
43647;DHT22;56152;49.996;18.980;2023-05-07T01:37:32;10.00;93.70
43647;DHT22;56152;49.996;18.980;2023-05-07T01:42:36;10.00;93.80
43647;DHT22;56152;49.996;18.980;2023-05-07T01:47:42;10.00;93.80
43647;DHT22;56152;49.996;18.980;2023-05-07T01:52:45;10.00;93.90
43647;DHT22;56152;49.996;18.980;2023-05-07T01:57:53;9.90;93.80
43647;DHT22;56152;49.996;18.980;2023-05-07T02:02:57;10.00;93.90
43647;DHT22;56152;49.996;18.980;2023-05-07T02:08:00;9.90;93.90
43647;DHT22;56152;49.996;18.980;2023-05-07T02:13:04;9.90;93.90
43647;DHT22;56152;49.996;18.980;2023-05-07T02:18:07;9.80;94.00
43647;DHT22;56152;49.996;18.980;2023-05-07T02:23:09;9.80;94.00
43647;DHT22;56152;49.996;18.980;2023-05-07T02:28:14;9.80;94.00
43647;DHT22;56152;49.996;18.980;2023-05-07T02:33:18;9.80;94.10
43647;DHT22;56152;49.996;18.980;2023-05-07T02:38:20;9.70;94.10
43647;DHT22;56152;49.996;18.980;2023-05-07T02:43:24;9.70;94.10
43647;DHT22;56152;49.996;18.980;2023-05-07T02:48:26;9.70;94.10
43647;DHT22;56152;49.996;18.980;2023-05-07T02:53:28;9.70;94.10
43647;DHT22;56152;49.996;18.980;2023-05-07T02:58:32;9.70;94.10
43647;DHT22;56152;49.996;18.980;2023-05-07T03:03:37;9.70;94.10
43647;DHT22;56152;49.996;18.980;2023-05-07T03:08:47;9.70;94.00
43647;DHT22;56152;49.996;18.980;2023-05-07T03:13:54;9.70;94.00
43647;DHT22;56152;49.996;18.980;2023-05-07T03:18:56;9.70;94.00
43647;DHT22;56152;49.996;18.980;2023-05-07T03:23:58;9.70;93.90
43647;DHT22;56152;49.996;18.980;2023-05-07T03:29:03;9.60;93.90
43647;DHT22;56152;49.996;18.980;2023-05-07T03:34:05;9.60;94.00
43647;DHT22;56152;49.996;18.980;2023-05-07T03:39:12;9.50;94.00
43647;DHT22;56152;49.996;18.980;2023-05-07T03:44:17;9.50;94.10
43647;DHT22;56152;49.996;18.980;2023-05-07T03:49:19;9.50;94.10
43647;DHT22;56152;49.996;18.980;2023-05-07T03:54:22;9.50;94.10
43647;DHT22;56152;49.996;18.980;2023-05-07T03:59:25;9.50;94.00
43647;DHT22;56152;49.996;18.980;2023-05-07T04:04:27;9.50;94.10
43647;DHT22;56152;49.996;18.980;2023-05-07T04:09:34;9.50;94.10
43647;DHT22;56152;49.996;18.980;2023-05-07T04:14:38;9.50;94.10
43647;DHT22;56152;49.996;18.980;2023-05-07T04:19:40;9.50;94.20
43647;DHT22;56152;49.996;18.980;2023-05-07T04:24:45;9.50;94.10
43647;DHT22;56152;49.996;18.980;2023-05-07T04:29:49;9.40;94.20
43647;DHT22;56152;49.996;18.980;2023-05-07T04:34:52;9.30;94.20
43647;DHT22;56152;49.996;18.980;2023-05-07T04:39:55;9.30;94.20
43647;DHT22;56152;49.996;18.980;2023-05-07T04:44:58;9.30;94.30
43647;DHT22;56152;49.996;18.980;2023-05-07T04:50:02;9.20;94.30
43647;DHT22;56152;49.996;18.980;2023-05-07T04:55:08;9.30;94.30
43647;DHT22;56152;49.996;18.980;2023-05-07T05:00:14;9.20;94.40
43647;DHT22;56152;49.996;18.980;2023-05-07T05:05:17;9.10;94.40
43647;DHT22;56152;49.996;18.980;2023-05-07T05:10:19;9.10;94.40
43647;DHT22;56152;49.996;18.980;2023-05-07T05:15:27;9.10;94.40
43647;DHT22;56152;49.996;18.980;2023-05-07T05:20:30;9.00;94.40
43647;DHT22;56152;49.996;18.980;2023-05-07T05:25:33;9.00;94.40
43647;DHT22;56152;49.996;18.980;2023-05-07T05:30:38;8.90;94.40
43647;DHT22;56152;49.996;18.980;2023-05-07T05:35:40;9.00;94.50
43647;DHT22;56152;49.996;18.980;2023-05-07T05:40:42;9.00;94.40
43647;DHT22;56152;49.996;18.980;2023-05-07T05:45:48;9.00;94.40
43647;DHT22;56152;49.996;18.980;2023-05-07T05:50:50;9.00;94.40
43647;DHT22;56152;49.996;18.980;2023-05-07T05:55:51;9.00;94.30
43647;DHT22;56152;49.996;18.980;2023-05-07T06:00:55;8.90;94.30
43647;DHT22;56152;49.996;18.980;2023-05-07T06:05:58;8.80;94.30
43647;DHT22;56152;49.996;18.980;2023-05-07T06:11:01;8.80;94.40
43647;DHT22;56152;49.996;18.980;2023-05-07T06:16:07;8.80;94.50
43647;DHT22;56152;49.996;18.980;2023-05-07T06:21:09;8.80;94.50
43647;DHT22;56152;49.996;18.980;2023-05-07T06:26:14;8.70;94.50
43647;DHT22;56152;49.996;18.980;2023-05-07T06:31:20;8.70;94.50
43647;DHT22;56152;49.996;18.980;2023-05-07T06:36:22;8.70;94.40
43647;DHT22;56152;49.996;18.980;2023-05-07T06:41:24;8.70;94.50
43647;DHT22;56152;49.996;18.980;2023-05-07T06:46:29;8.60;94.40
43647;DHT22;56152;49.996;18.980;2023-05-07T06:51:34;8.60;94.40
43647;DHT22;56152;49.996;18.980;2023-05-07T06:56:36;8.60;94.40
43647;DHT22;56152;49.996;18.980;2023-05-07T07:01:40;8.50;94.40
43647;DHT22;56152;49.996;18.980;2023-05-07T07:06:44;8.60;94.50
43647;DHT22;56152;49.996;18.980;2023-05-07T07:11:47;8.70;94.50
43647;DHT22;56152;49.996;18.980;2023-05-07T07:16:52;8.60;94.30
43647;DHT22;56152;49.996;18.980;2023-05-07T07:21:54;8.50;94.30
43647;DHT22;56152;49.996;18.980;2023-05-07T07:26:56;8.40;94.40
43647;DHT22;56152;49.996;18.980;2023-05-07T07:32:02;8.40;94.40
43647;DHT22;56152;49.996;18.980;2023-05-07T07:37:04;8.40;94.40
43647;DHT22;56152;49.996;18.980;2023-05-07T07:42:06;8.40;94.40
43647;DHT22;56152;49.996;18.980;2023-05-07T07:47:11;8.30;94.40
43647;DHT22;56152;49.996;18.980;2023-05-07T07:52:13;8.30;94.40
43647;DHT22;56152;49.996;18.980;2023-05-07T07:57:16;8.30;94.40
43647;DHT22;56152;49.996;18.980;2023-05-07T08:02:19;8.30;94.30
43647;DHT22;56152;49.996;18.980;2023-05-07T08:07:21;8.30;94.30
43647;DHT22;56152;49.996;18.980;2023-05-07T08:12:26;8.30;94.30
43647;DHT22;56152;49.996;18.980;2023-05-07T08:17:30;8.30;94.30
43647;DHT22;56152;49.996;18.980;2023-05-07T08:22:32;8.30;94.20
43647;DHT22;56152;49.996;18.980;2023-05-07T08:27:34;8.30;94.20
43647;DHT22;56152;49.996;18.980;2023-05-07T08:32:38;8.30;94.20
43647;DHT22;56152;49.996;18.980;2023-05-07T08:37:40;8.20;94.00
43647;DHT22;56152;49.996;18.980;2023-05-07T08:42:49;8.10;94.10
43647;DHT22;56152;49.996;18.980;2023-05-07T08:47:59;8.20;94.10
43647;DHT22;56152;49.996;18.980;2023-05-07T08:53:03;8.20;94.00
43647;DHT22;56152;49.996;18.980;2023-05-07T08:58:06;8.30;94.00
43647;DHT22;56152;49.996;18.980;2023-05-07T09:03:11;8.30;93.90
43647;DHT22;56152;49.996;18.980;2023-05-07T09:08:15;8.40;93.80
43647;DHT22;56152;49.996;18.980;2023-05-07T09:13:17;8.50;93.70
43647;DHT22;56152;49.996;18.980;2023-05-07T09:18:23;8.60;93.60
43647;DHT22;56152;49.996;18.980;2023-05-07T09:23:25;8.70;93.40
43647;DHT22;56152;49.996;18.980;2023-05-07T09:28:27;8.70;93.20
43647;DHT22;56152;49.996;18.980;2023-05-07T09:33:31;8.70;93.30
43647;DHT22;56152;49.996;18.980;2023-05-07T09:38:38;8.90;93.20
43647;DHT22;56152;49.996;18.980;2023-05-07T09:43:42;8.90;93.40
43647;DHT22;56152;49.996;18.980;2023-05-07T09:48:47;8.90;93.00
43647;DHT22;56152;49.996;18.980;2023-05-07T09:53:50;9.00;93.00
43647;DHT22;56152;49.996;18.980;2023-05-07T09:58:56;9.00;92.80
43647;DHT22;56152;49.996;18.980;2023-05-07T10:04:01;8.90;93.00
43647;DHT22;56152;49.996;18.980;2023-05-07T10:09:05;8.90;92.90
43647;DHT22;56152;49.996;18.980;2023-05-07T10:14:07;8.90;92.70
43647;DHT22;56152;49.996;18.980;2023-05-07T10:19:12;8.80;92.70
43647;DHT22;56152;49.996;18.980;2023-05-07T10:24:26;8.70;92.70
43647;DHT22;56152;49.996;18.980;2023-05-07T10:29:33;8.70;92.70
43647;DHT22;56152;49.996;18.980;2023-05-07T10:34:42;8.80;92.70
43647;DHT22;56152;49.996;18.980;2023-05-07T10:39:45;8.80;92.60
43647;DHT22;56152;49.996;18.980;2023-05-07T10:44:48;8.70;92.40
43647;DHT22;56152;49.996;18.980;2023-05-07T10:50:24;8.60;92.40
43647;DHT22;56152;49.996;18.980;2023-05-07T10:55:26;8.60;92.40
43647;DHT22;56152;49.996;18.980;2023-05-07T11:00:41;8.50;92.50
43647;DHT22;56152;49.996;18.980;2023-05-07T11:05:46;8.50;92.50
43647;DHT22;56152;49.996;18.980;2023-05-07T11:10:54;8.60;92.40
43647;DHT22;56152;49.996;18.980;2023-05-07T11:15:57;8.40;92.30
43647;DHT22;56152;49.996;18.980;2023-05-07T11:21:02;8.40;92.30
43647;DHT22;56152;49.996;18.980;2023-05-07T11:26:13;8.50;92.30
43647;DHT22;56152;49.996;18.980;2023-05-07T11:31:21;8.60;92.30
43647;DHT22;56152;49.996;18.980;2023-05-07T11:36:31;8.70;92.10
43647;DHT22;56152;49.996;18.980;2023-05-07T11:41:36;8.60;92.00
43647;DHT22;56152;49.996;18.980;2023-05-07T11:46:43;8.50;92.10
43647;DHT22;56152;49.996;18.980;2023-05-07T11:51:47;8.50;92.10
43647;DHT22;56152;49.996;18.980;2023-05-07T11:56:49;8.50;92.20
43647;DHT22;56152;49.996;18.980;2023-05-07T12:01:51;8.40;92.10
43647;DHT22;56152;49.996;18.980;2023-05-07T12:06:58;8.40;92.10
43647;DHT22;56152;49.996;18.980;2023-05-07T12:12:04;8.30;92.10
43647;DHT22;56152;49.996;18.980;2023-05-07T12:17:08;8.30;92.20
43647;DHT22;56152;49.996;18.980;2023-05-07T12:22:12;8.30;92.10
43647;DHT22;56152;49.996;18.980;2023-05-07T12:27:18;8.30;92.10
43647;DHT22;56152;49.996;18.980;2023-05-07T12:32:23;8.30;92.10
43647;DHT22;56152;49.996;18.980;2023-05-07T12:37:31;8.20;92.10
43647;DHT22;56152;49.996;18.980;2023-05-07T12:42:35;8.20;92.20
43647;DHT22;56152;49.996;18.980;2023-05-07T12:47:38;8.30;92.20
43647;DHT22;56152;49.996;18.980;2023-05-07T12:53:05;8.20;92.20
43647;DHT22;56152;49.996;18.980;2023-05-07T12:58:16;8.20;92.20
43647;DHT22;56152;49.996;18.980;2023-05-07T13:03:26;8.20;92.10
43647;DHT22;56152;49.996;18.980;2023-05-07T13:08:33;8.10;92.20
43647;DHT22;56152;49.996;18.980;2023-05-07T13:13:38;8.20;92.30
43647;DHT22;56152;49.996;18.980;2023-05-07T13:18:40;8.30;92.20
43647;DHT22;56152;49.996;18.980;2023-05-07T13:23:46;8.20;92.10
43647;DHT22;56152;49.996;18.980;2023-05-07T13:28:48;8.10;92.10
43647;DHT22;56152;49.996;18.980;2023-05-07T13:33:51;8.10;92.20
43647;DHT22;56152;49.996;18.980;2023-05-07T13:38:55;8.20;92.20
43647;DHT22;56152;49.996;18.980;2023-05-07T13:44:00;8.20;92.10
43647;DHT22;56152;49.996;18.980;2023-05-07T13:49:02;8.10;92.10
43647;DHT22;56152;49.996;18.980;2023-05-07T13:54:06;8.20;92.00
43647;DHT22;56152;49.996;18.980;2023-05-07T13:59:09;8.20;92.00
43647;DHT22;56152;49.996;18.980;2023-05-07T14:04:11;8.20;91.90
43647;DHT22;56152;49.996;18.980;2023-05-07T14:09:15;8.20;91.80
43647;DHT22;56152;49.996;18.980;2023-05-07T14:14:17;8.30;91.80
43647;DHT22;56152;49.996;18.980;2023-05-07T14:19:19;8.20;91.70
43647;DHT22;56152;49.996;18.980;2023-05-07T14:24:25;8.20;91.70
43647;DHT22;56152;49.996;18.980;2023-05-07T14:29:32;8.10;91.80
43647;DHT22;56152;49.996;18.980;2023-05-07T14:34:36;8.10;91.80
43647;DHT22;56152;49.996;18.980;2023-05-07T14:39:48;8.10;91.80
43647;DHT22;56152;49.996;18.980;2023-05-07T14:44:51;8.00;91.70
43647;DHT22;56152;49.996;18.980;2023-05-07T14:49:54;8.00;91.70
43647;DHT22;56152;49.996;18.980;2023-05-07T14:54:59;8.00;91.60
43647;DHT22;56152;49.996;18.980;2023-05-07T15:00:03;7.90;91.70
43647;DHT22;56152;49.996;18.980;2023-05-07T15:05:16;7.90;91.70
43647;DHT22;56152;49.996;18.980;2023-05-07T15:10:25;7.90;91.70
43647;DHT22;56152;49.996;18.980;2023-05-07T15:15:31;7.90;91.70
43647;DHT22;56152;49.996;18.980;2023-05-07T15:20:33;7.80;91.70
43647;DHT22;56152;49.996;18.980;2023-05-07T15:25:37;7.90;91.70
43647;DHT22;56152;49.996;18.980;2023-05-07T15:30:40;7.90;91.50
43647;DHT22;56152;49.996;18.980;2023-05-07T15:35:42;7.80;91.80
43647;DHT22;56152;49.996;18.980;2023-05-07T15:40:54;7.80;91.60
43647;DHT22;56152;49.996;18.980;2023-05-07T15:45:57;7.80;91.50
43647;DHT22;56152;49.996;18.980;2023-05-07T15:51:02;7.80;91.60
43647;DHT22;56152;49.996;18.980;2023-05-07T15:56:09;7.80;91.60
43647;DHT22;56152;49.996;18.980;2023-05-07T16:01:11;7.80;91.50
43647;DHT22;56152;49.996;18.980;2023-05-07T16:06:14;7.70;91.50
43647;DHT22;56152;49.996;18.980;2023-05-07T16:11:17;7.70;91.60
43647;DHT22;56152;49.996;18.980;2023-05-07T16:16:20;7.60;91.60
43647;DHT22;56152;49.996;18.980;2023-05-07T16:21:37;7.60;91.60
43647;DHT22;56152;49.996;18.980;2023-05-07T16:26:42;7.50;91.90
43647;DHT22;56152;49.996;18.980;2023-05-07T16:31:44;7.50;91.70
43647;DHT22;56152;49.996;18.980;2023-05-07T16:36:46;7.40;91.80
43647;DHT22;56152;49.996;18.980;2023-05-07T16:41:51;7.30;92.10
43647;DHT22;56152;49.996;18.980;2023-05-07T16:46:53;7.30;92.00
43647;DHT22;56152;49.996;18.980;2023-05-07T16:51:56;7.20;92.00
43647;DHT22;56152;49.996;18.980;2023-05-07T16:57:03;7.20;92.10
43647;DHT22;56152;49.996;18.980;2023-05-07T17:02:06;7.20;92.20
43647;DHT22;56152;49.996;18.980;2023-05-07T17:07:08;7.10;92.10
43647;DHT22;56152;49.996;18.980;2023-05-07T17:12:12;7.10;92.20
43647;DHT22;56152;49.996;18.980;2023-05-07T17:17:14;7.10;92.30
43647;DHT22;56152;49.996;18.980;2023-05-07T17:22:16;7.10;92.30
43647;DHT22;56152;49.996;18.980;2023-05-07T17:27:21;7.10;92.30
43647;DHT22;56152;49.996;18.980;2023-05-07T17:32:23;7.10;92.30
43647;DHT22;56152;49.996;18.980;2023-05-07T17:37:25;7.10;92.30
43647;DHT22;56152;49.996;18.980;2023-05-07T17:42:40;7.00;92.30
43647;DHT22;56152;49.996;18.980;2023-05-07T17:47:42;6.90;92.30
43647;DHT22;56152;49.996;18.980;2023-05-07T17:52:45;6.90;92.30
43647;DHT22;56152;49.996;18.980;2023-05-07T17:57:49;6.90;92.30
43647;DHT22;56152;49.996;18.980;2023-05-07T18:02:52;6.90;92.30
43647;DHT22;56152;49.996;18.980;2023-05-07T18:07:55;6.80;92.30
43647;DHT22;56152;49.996;18.980;2023-05-07T18:13:00;6.80;92.30
43647;DHT22;56152;49.996;18.980;2023-05-07T18:18:03;6.80;92.30
43647;DHT22;56152;49.996;18.980;2023-05-07T18:23:07;6.80;92.30
43647;DHT22;56152;49.996;18.980;2023-05-07T18:28:14;6.80;92.60
43647;DHT22;56152;49.996;18.980;2023-05-07T18:33:19;6.80;92.20
43647;DHT22;56152;49.996;18.980;2023-05-07T18:38:23;6.80;92.20
43647;DHT22;56152;49.996;18.980;2023-05-07T18:43:26;6.80;92.20
43647;DHT22;56152;49.996;18.980;2023-05-07T18:48:30;6.70;92.20
43647;DHT22;56152;49.996;18.980;2023-05-07T18:53:32;6.70;92.20
43647;DHT22;56152;49.996;18.980;2023-05-07T18:58:37;6.70;92.20
43647;DHT22;56152;49.996;18.980;2023-05-07T19:03:38;6.70;92.20
43647;DHT22;56152;49.996;18.980;2023-05-07T19:08:40;6.60;92.20
43647;DHT22;56152;49.996;18.980;2023-05-07T19:13:44;6.60;92.20
43647;DHT22;56152;49.996;18.980;2023-05-07T19:18:48;6.60;92.20
43647;DHT22;56152;49.996;18.980;2023-05-07T19:23:50;6.60;92.20
43647;DHT22;56152;49.996;18.980;2023-05-07T19:28:58;6.60;92.20
43647;DHT22;56152;49.996;18.980;2023-05-07T19:34:00;6.60;92.20
43647;DHT22;56152;49.996;18.980;2023-05-07T19:39:06;6.60;92.20
43647;DHT22;56152;49.996;18.980;2023-05-07T19:44:13;6.60;92.20
43647;DHT22;56152;49.996;18.980;2023-05-07T19:49:18;6.50;92.20
43647;DHT22;56152;49.996;18.980;2023-05-07T19:54:23;6.60;92.20
43647;DHT22;56152;49.996;18.980;2023-05-07T19:59:27;6.60;92.20
43647;DHT22;56152;49.996;18.980;2023-05-07T20:04:29;6.60;92.30
43647;DHT22;56152;49.996;18.980;2023-05-07T20:09:33;6.60;92.30
43647;DHT22;56152;49.996;18.980;2023-05-07T20:14:36;6.60;92.30
43647;DHT22;56152;49.996;18.980;2023-05-07T20:19:38;6.60;92.30
43647;DHT22;56152;49.996;18.980;2023-05-07T20:24:41;6.60;92.30
43647;DHT22;56152;49.996;18.980;2023-05-07T20:29:46;6.60;92.30
43647;DHT22;56152;49.996;18.980;2023-05-07T20:34:48;6.50;92.30
43647;DHT22;56152;49.996;18.980;2023-05-07T20:39:50;6.50;92.40
43647;DHT22;56152;49.996;18.980;2023-05-07T20:44:54;6.50;92.40
43647;DHT22;56152;49.996;18.980;2023-05-07T20:49:56;6.50;92.40
43647;DHT22;56152;49.996;18.980;2023-05-07T20:55:01;6.50;92.50
43647;DHT22;56152;49.996;18.980;2023-05-07T21:00:07;6.50;92.50
43647;DHT22;56152;49.996;18.980;2023-05-07T21:05:10;6.50;92.50
43647;DHT22;56152;49.996;18.980;2023-05-07T21:10:11;6.40;92.40
43647;DHT22;56152;49.996;18.980;2023-05-07T21:15:15;6.40;92.40
43647;DHT22;56152;49.996;18.980;2023-05-07T21:20:17;6.40;92.40
43647;DHT22;56152;49.996;18.980;2023-05-07T21:25:19;6.30;92.30
43647;DHT22;56152;49.996;18.980;2023-05-07T21:30:22;6.30;92.30
43647;DHT22;56152;49.996;18.980;2023-05-07T21:35:26;6.30;92.30
43647;DHT22;56152;49.996;18.980;2023-05-07T21:40:28;6.30;92.30
43647;DHT22;56152;49.996;18.980;2023-05-07T21:45:32;6.20;92.30
43647;DHT22;56152;49.996;18.980;2023-05-07T21:50:35;6.20;92.30
43647;DHT22;56152;49.996;18.980;2023-05-07T21:55:37;6.20;92.30
43647;DHT22;56152;49.996;18.980;2023-05-07T22:00:40;6.20;92.30
43647;DHT22;56152;49.996;18.980;2023-05-07T22:05:42;6.20;92.30
43647;DHT22;56152;49.996;18.980;2023-05-07T22:10:49;6.10;92.40
43647;DHT22;56152;49.996;18.980;2023-05-07T22:15:52;6.10;92.40
43647;DHT22;56152;49.996;18.980;2023-05-07T22:20:57;6.10;92.40
43647;DHT22;56152;49.996;18.980;2023-05-07T22:26:14;6.10;92.40
43647;DHT22;56152;49.996;18.980;2023-05-07T22:31:18;6.10;92.40
43647;DHT22;56152;49.996;18.980;2023-05-07T22:36:21;6.10;92.40
43647;DHT22;56152;49.996;18.980;2023-05-07T22:41:23;6.10;92.50
43647;DHT22;56152;49.996;18.980;2023-05-07T22:46:28;6.10;92.40
43647;DHT22;56152;49.996;18.980;2023-05-07T22:51:30;6.10;92.40
43647;DHT22;56152;49.996;18.980;2023-05-07T22:56:32;6.10;92.40
43647;DHT22;56152;49.996;18.980;2023-05-07T23:01:37;6.00;92.40
43647;DHT22;56152;49.996;18.980;2023-05-07T23:06:39;6.10;92.40
43647;DHT22;56152;49.996;18.980;2023-05-07T23:11:41;6.00;92.40
43647;DHT22;56152;49.996;18.980;2023-05-07T23:16:48;6.00;92.30
43647;DHT22;56152;49.996;18.980;2023-05-07T23:21:49;6.00;92.30
43647;DHT22;56152;49.996;18.980;2023-05-07T23:26:51;6.00;92.30
43647;DHT22;56152;49.996;18.980;2023-05-07T23:31:55;6.00;92.20
43647;DHT22;56152;49.996;18.980;2023-05-07T23:36:57;6.00;92.20
43647;DHT22;56152;49.996;18.980;2023-05-07T23:41:58;5.90;92.40
43647;DHT22;56152;49.996;18.980;2023-05-07T23:47:02;5.90;92.00
43647;DHT22;56152;49.996;18.980;2023-05-07T23:52:04;5.90;92.00
43647;DHT22;56152;49.996;18.980;2023-05-07T23:57:06;5.80;92.00
